sensor_id;sensor_type;location;lat;lon;timestamp;P1;durP1;ratioP1;P2;durP2;ratioP2
73150;SDS011;61354;50.758;6.106;2023-02-03T00:02:00;3.95;;;1.88;;
73150;SDS011;61354;50.758;6.106;2023-02-03T00:04:25;6.65;;;2.42;;
73150;SDS011;61354;50.758;6.106;2023-02-03T00:06:51;8.38;;;2.83;;
73150;SDS011;61354;50.758;6.106;2023-02-03T00:09:16;7.75;;;2.58;;
73150;SDS011;61354;50.758;6.106;2023-02-03T00:11:42;6.68;;;2.25;;
73150;SDS011;61354;50.758;6.106;2023-02-03T00:14:08;6.80;;;2.65;;
73150;SDS011;61354;50.758;6.106;2023-02-03T00:16:34;6.78;;;2.42;;
73150;SDS011;61354;50.758;6.106;2023-02-03T00:19:00;7.40;;;2.58;;
73150;SDS011;61354;50.758;6.106;2023-02-03T00:21:25;5.25;;;1.98;;
73150;SDS011;61354;50.758;6.106;2023-02-03T00:23:51;9.90;;;2.13;;
73150;SDS011;61354;50.758;6.106;2023-02-03T00:26:16;5.90;;;2.60;;
73150;SDS011;61354;50.758;6.106;2023-02-03T00:28:42;4.90;;;2.08;;
73150;SDS011;61354;50.758;6.106;2023-02-03T00:31:18;5.05;;;2.22;;
73150;SDS011;61354;50.758;6.106;2023-02-03T00:33:46;6.88;;;2.53;;
73150;SDS011;61354;50.758;6.106;2023-02-03T00:36:17;5.80;;;2.40;;
73150;SDS011;61354;50.758;6.106;2023-02-03T00:38:42;5.30;;;1.92;;
73150;SDS011;61354;50.758;6.106;2023-02-03T00:41:08;7.20;;;2.42;;
73150;SDS011;61354;50.758;6.106;2023-02-03T00:43:33;5.20;;;2.38;;
73150;SDS011;61354;50.758;6.106;2023-02-03T00:45:59;4.68;;;2.20;;
73150;SDS011;61354;50.758;6.106;2023-02-03T00:48:24;5.35;;;2.47;;
73150;SDS011;61354;50.758;6.106;2023-02-03T00:50:50;3.97;;;2.38;;
73150;SDS011;61354;50.758;6.106;2023-02-03T00:53:16;6.13;;;2.70;;
73150;SDS011;61354;50.758;6.106;2023-02-03T00:55:41;5.75;;;2.33;;
73150;SDS011;61354;50.758;6.106;2023-02-03T00:58:07;6.13;;;2.42;;
73150;SDS011;61354;50.758;6.106;2023-02-03T01:00:33;4.25;;;2.33;;
73150;SDS011;61354;50.758;6.106;2023-02-03T01:02:58;5.10;;;2.33;;
73150;SDS011;61354;50.758;6.106;2023-02-03T01:05:24;7.63;;;2.38;;
73150;SDS011;61354;50.758;6.106;2023-02-03T01:07:49;5.68;;;2.30;;
73150;SDS011;61354;50.758;6.106;2023-02-03T01:10:15;4.78;;;2.03;;
73150;SDS011;61354;50.758;6.106;2023-02-03T01:12:41;7.63;;;2.55;;
73150;SDS011;61354;50.758;6.106;2023-02-03T01:15:06;6.75;;;2.53;;
73150;SDS011;61354;50.758;6.106;2023-02-03T01:17:32;4.97;;;2.10;;
73150;SDS011;61354;50.758;6.106;2023-02-03T01:19:58;5.97;;;2.75;;
73150;SDS011;61354;50.758;6.106;2023-02-03T01:22:24;5.82;;;2.40;;
73150;SDS011;61354;50.758;6.106;2023-02-03T01:24:49;5.80;;;2.47;;
73150;SDS011;61354;50.758;6.106;2023-02-03T01:27:15;5.72;;;2.47;;
73150;SDS011;61354;50.758;6.106;2023-02-03T01:29:40;6.15;;;2.42;;
73150;SDS011;61354;50.758;6.106;2023-02-03T01:32:06;8.45;;;3.05;;
73150;SDS011;61354;50.758;6.106;2023-02-03T01:34:31;5.63;;;2.42;;
73150;SDS011;61354;50.758;6.106;2023-02-03T01:36:57;4.15;;;2.30;;
73150;SDS011;61354;50.758;6.106;2023-02-03T01:39:22;4.85;;;2.85;;
73150;SDS011;61354;50.758;6.106;2023-02-03T01:41:50;6.78;;;2.45;;
73150;SDS011;61354;50.758;6.106;2023-02-03T01:44:37;5.03;;;2.58;;
73150;SDS011;61354;50.758;6.106;2023-02-03T01:47:16;5.80;;;2.28;;
73150;SDS011;61354;50.758;6.106;2023-02-03T01:50:33;4.13;;;2.40;;
73150;SDS011;61354;50.758;6.106;2023-02-03T01:52:42;4.20;;;1.92;;
73150;SDS011;61354;50.758;6.106;2023-02-03T01:55:10;4.07;;;2.22;;
73150;SDS011;61354;50.758;6.106;2023-02-03T01:57:42;6.82;;;3.00;;
73150;SDS011;61354;50.758;6.106;2023-02-03T02:00:16;5.07;;;2.58;;
73150;SDS011;61354;50.758;6.106;2023-02-03T02:02:43;5.45;;;2.33;;
73150;SDS011;61354;50.758;6.106;2023-02-03T02:05:32;5.32;;;2.70;;
73150;SDS011;61354;50.758;6.106;2023-02-03T02:07:58;4.72;;;2.22;;
73150;SDS011;61354;50.758;6.106;2023-02-03T02:10:26;4.47;;;2.65;;
73150;SDS011;61354;50.758;6.106;2023-02-03T02:12:54;7.47;;;2.72;;
73150;SDS011;61354;50.758;6.106;2023-02-03T02:15:27;4.13;;;2.35;;
73150;SDS011;61354;50.758;6.106;2023-02-03T02:37:01;4.47;;;2.15;;
73150;SDS011;61354;50.758;6.106;2023-02-03T02:39:37;5.40;;;2.38;;
73150;SDS011;61354;50.758;6.106;2023-02-03T02:42:14;4.93;;;2.28;;
73150;SDS011;61354;50.758;6.106;2023-02-03T02:44:49;4.53;;;1.98;;
73150;SDS011;61354;50.758;6.106;2023-02-03T02:47:18;6.20;;;2.30;;
73150;SDS011;61354;50.758;6.106;2023-02-03T02:52:13;6.10;;;2.10;;
73150;SDS011;61354;50.758;6.106;2023-02-03T02:54:42;5.82;;;2.30;;
73150;SDS011;61354;50.758;6.106;2023-02-03T02:57:12;5.15;;;2.10;;
73150;SDS011;61354;50.758;6.106;2023-02-03T02:59:39;4.82;;;1.90;;
73150;SDS011;61354;50.758;6.106;2023-02-03T03:02:05;2.28;;;1.55;;
73150;SDS011;61354;50.758;6.106;2023-02-03T03:04:31;3.97;;;1.95;;
73150;SDS011;61354;50.758;6.106;2023-02-03T03:07:03;5.35;;;1.90;;
73150;SDS011;61354;50.758;6.106;2023-02-03T03:09:38;4.25;;;1.90;;
73150;SDS011;61354;50.758;6.106;2023-02-03T03:12:06;6.28;;;2.13;;
73150;SDS011;61354;50.758;6.106;2023-02-03T03:14:38;5.03;;;2.35;;
73150;SDS011;61354;50.758;6.106;2023-02-03T03:17:09;6.97;;;2.85;;
73150;SDS011;61354;50.758;6.106;2023-02-03T03:19:41;4.15;;;1.88;;
73150;SDS011;61354;50.758;6.106;2023-02-03T03:22:13;6.25;;;2.20;;
73150;SDS011;61354;50.758;6.106;2023-02-03T03:24:44;5.13;;;2.20;;
73150;SDS011;61354;50.758;6.106;2023-02-03T03:27:17;4.55;;;2.30;;
73150;SDS011;61354;50.758;6.106;2023-02-03T03:29:49;5.60;;;1.98;;
73150;SDS011;61354;50.758;6.106;2023-02-03T03:32:19;4.28;;;1.60;;
73150;SDS011;61354;50.758;6.106;2023-02-03T03:34:45;2.80;;;1.55;;
73150;SDS011;61354;50.758;6.106;2023-02-03T03:39:45;4.75;;;1.90;;
73150;SDS011;61354;50.758;6.106;2023-02-03T03:45:22;5.72;;;1.83;;
73150;SDS011;61354;50.758;6.106;2023-02-03T03:48:00;4.47;;;1.88;;
73150;SDS011;61354;50.758;6.106;2023-02-03T03:50:30;7.22;;;2.10;;
73150;SDS011;61354;50.758;6.106;2023-02-03T03:53:02;3.00;;;1.58;;
73150;SDS011;61354;50.758;6.106;2023-02-03T03:55:31;6.78;;;1.98;;
73150;SDS011;61354;50.758;6.106;2023-02-03T03:58:00;3.90;;;2.00;;
73150;SDS011;61354;50.758;6.106;2023-02-03T04:00:28;6.05;;;1.90;;
73150;SDS011;61354;50.758;6.106;2023-02-03T04:02:57;6.05;;;2.20;;
73150;SDS011;61354;50.758;6.106;2023-02-03T04:05:26;5.25;;;2.00;;
73150;SDS011;61354;50.758;6.106;2023-02-03T04:07:52;6.55;;;2.50;;
73150;SDS011;61354;50.758;6.106;2023-02-03T04:10:24;9.43;;;2.28;;
73150;SDS011;61354;50.758;6.106;2023-02-03T04:12:55;5.65;;;1.60;;
73150;SDS011;61354;50.758;6.106;2023-02-03T04:15:20;4.65;;;1.60;;
73150;SDS011;61354;50.758;6.106;2023-02-03T04:17:46;6.35;;;1.70;;
73150;SDS011;61354;50.758;6.106;2023-02-03T04:20:12;5.35;;;1.52;;
73150;SDS011;61354;50.758;6.106;2023-02-03T04:22:38;3.75;;;2.03;;
73150;SDS011;61354;50.758;6.106;2023-02-03T04:25:04;4.68;;;1.60;;
73150;SDS011;61354;50.758;6.106;2023-02-03T04:27:30;3.03;;;1.70;;
73150;SDS011;61354;50.758;6.106;2023-02-03T04:29:56;3.53;;;1.45;;
73150;SDS011;61354;50.758;6.106;2023-02-03T04:32:21;7.47;;;1.73;;
73150;SDS011;61354;50.758;6.106;2023-02-03T04:34:47;3.88;;;1.27;;
73150;SDS011;61354;50.758;6.106;2023-02-03T04:37:12;2.85;;;1.40;;
73150;SDS011;61354;50.758;6.106;2023-02-03T04:39:38;6.40;;;2.03;;
73150;SDS011;61354;50.758;6.106;2023-02-03T04:42:04;3.95;;;1.35;;
73150;SDS011;61354;50.758;6.106;2023-02-03T04:44:29;5.90;;;1.80;;
73150;SDS011;61354;50.758;6.106;2023-02-03T04:46:55;7.03;;;1.88;;
73150;SDS011;61354;50.758;6.106;2023-02-03T04:49:20;3.80;;;1.60;;
73150;SDS011;61354;50.758;6.106;2023-02-03T04:51:49;5.47;;;1.73;;
73150;SDS011;61354;50.758;6.106;2023-02-03T04:54:15;3.10;;;1.55;;
73150;SDS011;61354;50.758;6.106;2023-02-03T04:56:41;4.07;;;1.27;;
73150;SDS011;61354;50.758;6.106;2023-02-03T04:59:06;5.75;;;1.42;;
73150;SDS011;61354;50.758;6.106;2023-02-03T05:01:32;3.72;;;1.45;;
73150;SDS011;61354;50.758;6.106;2023-02-03T05:03:58;3.95;;;1.20;;
73150;SDS011;61354;50.758;6.106;2023-02-03T05:06:24;4.70;;;1.42;;
73150;SDS011;61354;50.758;6.106;2023-02-03T05:08:51;4.63;;;1.35;;
73150;SDS011;61354;50.758;6.106;2023-02-03T05:11:17;6.15;;;1.50;;
73150;SDS011;61354;50.758;6.106;2023-02-03T05:13:43;5.70;;;1.70;;
73150;SDS011;61354;50.758;6.106;2023-02-03T05:16:08;3.60;;;1.30;;
73150;SDS011;61354;50.758;6.106;2023-02-03T05:18:34;5.30;;;1.98;;
73150;SDS011;61354;50.758;6.106;2023-02-03T05:20:59;7.18;;;2.45;;
73150;SDS011;61354;50.758;6.106;2023-02-03T05:23:25;4.70;;;1.30;;
73150;SDS011;61354;50.758;6.106;2023-02-03T05:25:50;3.22;;;1.33;;
73150;SDS011;61354;50.758;6.106;2023-02-03T05:28:16;2.92;;;1.30;;
73150;SDS011;61354;50.758;6.106;2023-02-03T05:30:41;5.57;;;2.17;;
73150;SDS011;61354;50.758;6.106;2023-02-03T05:33:08;4.32;;;1.20;;
73150;SDS011;61354;50.758;6.106;2023-02-03T05:35:33;4.63;;;1.40;;
73150;SDS011;61354;50.758;6.106;2023-02-03T05:37:59;3.13;;;1.40;;
73150;SDS011;61354;50.758;6.106;2023-02-03T05:40:25;3.45;;;1.48;;
73150;SDS011;61354;50.758;6.106;2023-02-03T05:43:09;4.93;;;1.25;;
73150;SDS011;61354;50.758;6.106;2023-02-03T05:45:34;6.60;;;1.63;;
73150;SDS011;61354;50.758;6.106;2023-02-03T05:48:00;4.30;;;1.90;;
73150;SDS011;61354;50.758;6.106;2023-02-03T05:50:27;4.20;;;1.20;;
73150;SDS011;61354;50.758;6.106;2023-02-03T05:52:58;3.40;;;1.27;;
73150;SDS011;61354;50.758;6.106;2023-02-03T05:55:27;4.00;;;2.05;;
73150;SDS011;61354;50.758;6.106;2023-02-03T05:57:53;3.50;;;1.45;;
73150;SDS011;61354;50.758;6.106;2023-02-03T06:00:19;5.10;;;2.13;;
73150;SDS011;61354;50.758;6.106;2023-02-03T06:05:22;2.92;;;1.35;;
73150;SDS011;61354;50.758;6.106;2023-02-03T06:07:48;4.95;;;1.48;;
73150;SDS011;61354;50.758;6.106;2023-02-03T06:10:14;7.07;;;1.40;;
73150;SDS011;61354;50.758;6.106;2023-02-03T06:12:40;4.85;;;1.40;;
73150;SDS011;61354;50.758;6.106;2023-02-03T06:15:06;5.47;;;2.15;;
73150;SDS011;61354;50.758;6.106;2023-02-03T06:17:32;5.25;;;1.30;;
73150;SDS011;61354;50.758;6.106;2023-02-03T06:19:57;3.22;;;1.42;;
73150;SDS011;61354;50.758;6.106;2023-02-03T06:22:23;2.78;;;1.20;;
73150;SDS011;61354;50.758;6.106;2023-02-03T06:24:49;3.85;;;1.13;;
73150;SDS011;61354;50.758;6.106;2023-02-03T06:27:14;3.75;;;1.23;;
73150;SDS011;61354;50.758;6.106;2023-02-03T06:29:41;3.90;;;1.20;;
73150;SDS011;61354;50.758;6.106;2023-02-03T06:32:07;3.65;;;1.40;;
73150;SDS011;61354;50.758;6.106;2023-02-03T06:34:33;4.80;;;1.70;;
73150;SDS011;61354;50.758;6.106;2023-02-03T06:36:59;3.15;;;1.02;;
73150;SDS011;61354;50.758;6.106;2023-02-03T06:39:25;3.22;;;1.20;;
73150;SDS011;61354;50.758;6.106;2023-02-03T06:41:50;4.10;;;1.20;;
73150;SDS011;61354;50.758;6.106;2023-02-03T06:44:19;4.95;;;1.20;;
73150;SDS011;61354;50.758;6.106;2023-02-03T06:46:45;5.50;;;1.10;;
73150;SDS011;61354;50.758;6.106;2023-02-03T06:49:10;4.55;;;1.23;;
73150;SDS011;61354;50.758;6.106;2023-02-03T06:51:36;1.42;;;1.00;;
73150;SDS011;61354;50.758;6.106;2023-02-03T06:54:01;5.18;;;1.20;;
73150;SDS011;61354;50.758;6.106;2023-02-03T06:56:30;3.58;;;0.98;;
73150;SDS011;61354;50.758;6.106;2023-02-03T06:58:56;4.25;;;1.35;;
73150;SDS011;61354;50.758;6.106;2023-02-03T07:01:22;6.25;;;1.38;;
73150;SDS011;61354;50.758;6.106;2023-02-03T07:03:50;6.88;;;1.30;;
73150;SDS011;61354;50.758;6.106;2023-02-03T07:06:16;2.25;;;1.05;;
73150;SDS011;61354;50.758;6.106;2023-02-03T07:08:42;3.42;;;1.20;;
73150;SDS011;61354;50.758;6.106;2023-02-03T07:11:08;2.35;;;1.08;;
73150;SDS011;61354;50.758;6.106;2023-02-03T07:13:33;3.13;;;1.13;;
73150;SDS011;61354;50.758;6.106;2023-02-03T07:15:59;5.25;;;1.38;;
73150;SDS011;61354;50.758;6.106;2023-02-03T07:18:25;4.70;;;1.10;;
73150;SDS011;61354;50.758;6.106;2023-02-03T07:20:51;2.53;;;1.00;;
73150;SDS011;61354;50.758;6.106;2023-02-03T07:23:17;5.40;;;1.63;;
73150;SDS011;61354;50.758;6.106;2023-02-03T07:25:43;3.00;;;1.00;;
73150;SDS011;61354;50.758;6.106;2023-02-03T07:28:09;6.63;;;1.35;;
73150;SDS011;61354;50.758;6.106;2023-02-03T07:30:34;3.80;;;1.23;;
73150;SDS011;61354;50.758;6.106;2023-02-03T07:33:00;3.55;;;0.98;;
73150;SDS011;61354;50.758;6.106;2023-02-03T07:35:26;3.72;;;1.10;;
73150;SDS011;61354;50.758;6.106;2023-02-03T07:37:52;2.33;;;0.70;;
73150;SDS011;61354;50.758;6.106;2023-02-03T07:40:17;4.00;;;1.30;;
73150;SDS011;61354;50.758;6.106;2023-02-03T07:42:45;4.70;;;1.05;;
73150;SDS011;61354;50.758;6.106;2023-02-03T07:45:12;2.92;;;1.23;;
73150;SDS011;61354;50.758;6.106;2023-02-03T07:47:40;2.70;;;0.85;;
73150;SDS011;61354;50.758;6.106;2023-02-03T07:50:07;3.58;;;0.93;;
73150;SDS011;61354;50.758;6.106;2023-02-03T07:52:35;1.88;;;1.02;;
73150;SDS011;61354;50.758;6.106;2023-02-03T07:55:01;6.68;;;1.20;;
73150;SDS011;61354;50.758;6.106;2023-02-03T07:57:27;3.38;;;0.90;;
73150;SDS011;61354;50.758;6.106;2023-02-03T07:59:52;3.42;;;1.20;;
73150;SDS011;61354;50.758;6.106;2023-02-03T08:02:18;3.40;;;0.93;;
73150;SDS011;61354;50.758;6.106;2023-02-03T08:04:43;2.30;;;1.00;;
73150;SDS011;61354;50.758;6.106;2023-02-03T08:07:09;2.33;;;0.90;;
73150;SDS011;61354;50.758;6.106;2023-02-03T08:09:34;3.88;;;1.10;;
73150;SDS011;61354;50.758;6.106;2023-02-03T08:12:00;2.80;;;1.30;;
73150;SDS011;61354;50.758;6.106;2023-02-03T08:14:26;2.47;;;1.02;;
73150;SDS011;61354;50.758;6.106;2023-02-03T08:16:51;2.17;;;0.98;;
73150;SDS011;61354;50.758;6.106;2023-02-03T08:19:17;4.55;;;1.38;;
73150;SDS011;61354;50.758;6.106;2023-02-03T08:21:42;2.95;;;1.08;;
73150;SDS011;61354;50.758;6.106;2023-02-03T08:24:08;3.38;;;1.20;;
73150;SDS011;61354;50.758;6.106;2023-02-03T08:26:34;3.53;;;1.23;;
73150;SDS011;61354;50.758;6.106;2023-02-03T08:29:00;2.78;;;1.13;;
73150;SDS011;61354;50.758;6.106;2023-02-03T08:31:27;3.70;;;1.35;;
73150;SDS011;61354;50.758;6.106;2023-02-03T08:33:53;1.90;;;0.85;;
73150;SDS011;61354;50.758;6.106;2023-02-03T08:36:19;2.78;;;1.10;;
73150;SDS011;61354;50.758;6.106;2023-02-03T08:38:44;4.65;;;1.30;;
73150;SDS011;61354;50.758;6.106;2023-02-03T08:41:11;4.55;;;1.10;;
73150;SDS011;61354;50.758;6.106;2023-02-03T08:43:39;3.92;;;1.55;;
73150;SDS011;61354;50.758;6.106;2023-02-03T08:46:06;2.08;;;1.50;;
73150;SDS011;61354;50.758;6.106;2023-02-03T08:48:33;2.00;;;0.90;;
73150;SDS011;61354;50.758;6.106;2023-02-03T08:50:58;3.65;;;1.30;;
73150;SDS011;61354;50.758;6.106;2023-02-03T08:53:24;2.78;;;1.13;;
73150;SDS011;61354;50.758;6.106;2023-02-03T08:55:51;4.18;;;1.58;;
73150;SDS011;61354;50.758;6.106;2023-02-03T08:58:17;2.70;;;0.98;;
73150;SDS011;61354;50.758;6.106;2023-02-03T09:00:43;4.72;;;1.67;;
73150;SDS011;61354;50.758;6.106;2023-02-03T09:03:09;2.80;;;1.02;;
73150;SDS011;61354;50.758;6.106;2023-02-03T09:05:35;5.10;;;1.35;;
73150;SDS011;61354;50.758;6.106;2023-02-03T09:08:01;4.25;;;1.85;;
73150;SDS011;61354;50.758;6.106;2023-02-03T09:10:27;4.15;;;1.48;;
73150;SDS011;61354;50.758;6.106;2023-02-03T09:12:52;2.30;;;0.73;;
73150;SDS011;61354;50.758;6.106;2023-02-03T09:15:18;4.45;;;1.30;;
73150;SDS011;61354;50.758;6.106;2023-02-03T09:17:44;4.15;;;1.20;;
73150;SDS011;61354;50.758;6.106;2023-02-03T09:20:10;5.40;;;1.52;;
73150;SDS011;61354;50.758;6.106;2023-02-03T09:22:38;2.75;;;1.30;;
73150;SDS011;61354;50.758;6.106;2023-02-03T09:25:04;4.13;;;1.23;;
73150;SDS011;61354;50.758;6.106;2023-02-03T09:27:30;5.38;;;1.60;;
73150;SDS011;61354;50.758;6.106;2023-02-03T09:29:56;4.55;;;1.65;;
73150;SDS011;61354;50.758;6.106;2023-02-03T09:32:22;2.15;;;0.98;;
73150;SDS011;61354;50.758;6.106;2023-02-03T09:34:48;3.10;;;1.40;;
73150;SDS011;61354;50.758;6.106;2023-02-03T09:37:14;4.90;;;1.42;;
73150;SDS011;61354;50.758;6.106;2023-02-03T09:39:40;3.63;;;1.40;;
73150;SDS011;61354;50.758;6.106;2023-02-03T09:42:08;4.18;;;1.27;;
73150;SDS011;61354;50.758;6.106;2023-02-03T09:44:49;4.40;;;1.50;;
73150;SDS011;61354;50.758;6.106;2023-02-03T09:47:19;3.90;;;1.60;;
73150;SDS011;61354;50.758;6.106;2023-02-03T09:49:55;3.55;;;1.40;;
73150;SDS011;61354;50.758;6.106;2023-02-03T09:52:37;5.43;;;1.55;;
73150;SDS011;61354;50.758;6.106;2023-02-03T09:58:05;5.75;;;2.03;;
73150;SDS011;61354;50.758;6.106;2023-02-03T10:00:44;2.75;;;1.65;;
73150;SDS011;61354;50.758;6.106;2023-02-03T10:08:35;2.78;;;1.10;;
73150;SDS011;61354;50.758;6.106;2023-02-03T10:19:54;2.88;;;1.67;;
73150;SDS011;61354;50.758;6.106;2023-02-03T10:22:25;2.83;;;1.40;;
73150;SDS011;61354;50.758;6.106;2023-02-03T10:27:19;3.70;;;1.60;;
73150;SDS011;61354;50.758;6.106;2023-02-03T10:29:57;3.08;;;2.00;;
73150;SDS011;61354;50.758;6.106;2023-02-03T10:32:28;3.67;;;2.20;;
73150;SDS011;61354;50.758;6.106;2023-02-03T10:34:54;4.20;;;1.70;;
73150;SDS011;61354;50.758;6.106;2023-02-03T10:37:29;4.28;;;2.10;;
73150;SDS011;61354;50.758;6.106;2023-02-03T10:39:58;5.45;;;2.00;;
73150;SDS011;61354;50.758;6.106;2023-02-03T10:42:26;4.05;;;1.75;;
73150;SDS011;61354;50.758;6.106;2023-02-03T10:45:14;5.10;;;1.90;;
73150;SDS011;61354;50.758;6.106;2023-02-03T10:47:41;4.88;;;1.83;;
73150;SDS011;61354;50.758;6.106;2023-02-03T10:50:16;4.18;;;2.13;;
73150;SDS011;61354;50.758;6.106;2023-02-03T10:52:48;4.28;;;1.90;;
73150;SDS011;61354;50.758;6.106;2023-02-03T10:57:48;4.10;;;1.70;;
73150;SDS011;61354;50.758;6.106;2023-02-03T11:00:22;3.88;;;1.40;;
73150;SDS011;61354;50.758;6.106;2023-02-03T11:05:39;6.03;;;2.10;;
73150;SDS011;61354;50.758;6.106;2023-02-03T11:08:12;3.75;;;1.60;;
73150;SDS011;61354;50.758;6.106;2023-02-03T11:10:39;3.10;;;1.55;;
73150;SDS011;61354;50.758;6.106;2023-02-03T11:16:05;2.72;;;1.60;;
73150;SDS011;61354;50.758;6.106;2023-02-03T11:21:29;3.28;;;1.73;;
73150;SDS011;61354;50.758;6.106;2023-02-03T11:24:04;4.07;;;1.70;;
73150;SDS011;61354;50.758;6.106;2023-02-03T11:29:36;2.63;;;1.55;;
73150;SDS011;61354;50.758;6.106;2023-02-03T11:32:12;4.07;;;1.50;;
73150;SDS011;61354;50.758;6.106;2023-02-03T11:35:31;5.07;;;1.55;;
73150;SDS011;61354;50.758;6.106;2023-02-03T11:37:41;3.78;;;1.60;;
73150;SDS011;61354;50.758;6.106;2023-02-03T11:42:40;2.72;;;1.80;;
73150;SDS011;61354;50.758;6.106;2023-02-03T11:47:55;2.60;;;1.73;;
73150;SDS011;61354;50.758;6.106;2023-02-03T12:01:50;4.60;;;1.85;;
73150;SDS011;61354;50.758;6.106;2023-02-03T12:23:12;4.68;;;2.40;;
73150;SDS011;61354;50.758;6.106;2023-02-03T12:31:54;6.95;;;3.38;;
73150;SDS011;61354;50.758;6.106;2023-02-03T12:34:08;4.68;;;2.17;;
73150;SDS011;61354;50.758;6.106;2023-02-03T12:36:39;5.05;;;2.13;;
73150;SDS011;61354;50.758;6.106;2023-02-03T12:39:25;4.07;;;1.88;;
73150;SDS011;61354;50.758;6.106;2023-02-03T12:42:02;3.75;;;2.03;;
73150;SDS011;61354;50.758;6.106;2023-02-03T12:44:42;3.47;;;1.90;;
73150;SDS011;61354;50.758;6.106;2023-02-03T12:50:03;4.55;;;2.40;;
73150;SDS011;61354;50.758;6.106;2023-02-03T12:58:32;6.68;;;2.58;;
73150;SDS011;61354;50.758;6.106;2023-02-03T13:01:04;6.47;;;2.55;;
73150;SDS011;61354;50.758;6.106;2023-02-03T13:06:29;5.45;;;2.60;;
73150;SDS011;61354;50.758;6.106;2023-02-03T13:09:13;5.07;;;2.85;;
73150;SDS011;61354;50.758;6.106;2023-02-03T13:17:11;5.43;;;3.30;;
73150;SDS011;61354;50.758;6.106;2023-02-03T13:19:41;6.20;;;3.42;;
73150;SDS011;61354;50.758;6.106;2023-02-03T13:22:13;7.28;;;4.50;;
73150;SDS011;61354;50.758;6.106;2023-02-03T13:24:40;6.07;;;2.97;;
73150;SDS011;61354;50.758;6.106;2023-02-03T13:32:41;4.63;;;2.90;;
73150;SDS011;61354;50.758;6.106;2023-02-03T13:38:26;5.13;;;3.28;;
73150;SDS011;61354;50.758;6.106;2023-02-03T13:41:06;3.78;;;2.53;;
73150;SDS011;61354;50.758;6.106;2023-02-03T13:43:45;5.38;;;3.17;;
73150;SDS011;61354;50.758;6.106;2023-02-03T13:46:33;6.38;;;3.33;;
73150;SDS011;61354;50.758;6.106;2023-02-03T13:49:01;6.13;;;3.33;;
73150;SDS011;61354;50.758;6.106;2023-02-03T13:51:29;7.53;;;3.60;;
73150;SDS011;61354;50.758;6.106;2023-02-03T13:54:01;4.78;;;2.92;;
73150;SDS011;61354;50.758;6.106;2023-02-03T13:56:32;3.92;;;2.75;;
73150;SDS011;61354;50.758;6.106;2023-02-03T14:01:37;5.28;;;3.45;;
73150;SDS011;61354;50.758;6.106;2023-02-03T14:04:05;6.55;;;4.05;;
73150;SDS011;61354;50.758;6.106;2023-02-03T14:14:58;7.28;;;3.90;;
73150;SDS011;61354;50.758;6.106;2023-02-03T14:20:01;5.78;;;3.95;;
73150;SDS011;61354;50.758;6.106;2023-02-03T14:22:28;5.63;;;3.67;;
73150;SDS011;61354;50.758;6.106;2023-02-03T14:24:55;4.50;;;2.92;;
73150;SDS011;61354;50.758;6.106;2023-02-03T14:27:28;4.03;;;2.40;;
73150;SDS011;61354;50.758;6.106;2023-02-03T14:33:14;4.28;;;2.95;;
73150;SDS011;61354;50.758;6.106;2023-02-03T14:35:35;7.47;;;3.28;;
73150;SDS011;61354;50.758;6.106;2023-02-03T14:38:10;6.32;;;4.00;;
73150;SDS011;61354;50.758;6.106;2023-02-03T14:48:56;6.53;;;3.45;;
73150;SDS011;61354;50.758;6.106;2023-02-03T15:07:53;8.43;;;4.22;;
73150;SDS011;61354;50.758;6.106;2023-02-03T15:10:20;7.45;;;4.13;;
73150;SDS011;61354;50.758;6.106;2023-02-03T15:15:26;6.88;;;4.00;;
73150;SDS011;61354;50.758;6.106;2023-02-03T15:20:29;7.10;;;4.10;;
73150;SDS011;61354;50.758;6.106;2023-02-03T15:23:27;6.15;;;4.07;;
73150;SDS011;61354;50.758;6.106;2023-02-03T15:25:59;8.00;;;4.18;;
73150;SDS011;61354;50.758;6.106;2023-02-03T15:28:27;6.63;;;4.05;;
73150;SDS011;61354;50.758;6.106;2023-02-03T15:33:29;6.78;;;4.03;;
73150;SDS011;61354;50.758;6.106;2023-02-03T15:35:57;6.93;;;4.47;;
73150;SDS011;61354;50.758;6.106;2023-02-03T15:38:37;11.23;;;4.78;;
73150;SDS011;61354;50.758;6.106;2023-02-03T15:41:06;6.97;;;4.93;;
73150;SDS011;61354;50.758;6.106;2023-02-03T15:43:41;10.20;;;4.10;;
73150;SDS011;61354;50.758;6.106;2023-02-03T15:51:37;5.93;;;3.72;;
73150;SDS011;61354;50.758;6.106;2023-02-03T15:54:35;9.60;;;4.47;;
73150;SDS011;61354;50.758;6.106;2023-02-03T15:57:06;8.40;;;4.50;;
73150;SDS011;61354;50.758;6.106;2023-02-03T15:59:42;6.22;;;4.10;;
73150;SDS011;61354;50.758;6.106;2023-02-03T16:02:14;6.95;;;4.15;;
73150;SDS011;61354;50.758;6.106;2023-02-03T16:04:43;9.48;;;5.35;;
73150;SDS011;61354;50.758;6.106;2023-02-03T16:07:14;8.13;;;3.92;;
73150;SDS011;61354;50.758;6.106;2023-02-03T16:09:42;9.77;;;4.40;;
73150;SDS011;61354;50.758;6.106;2023-02-03T16:14:50;10.15;;;4.60;;
73150;SDS011;61354;50.758;6.106;2023-02-03T16:17:28;7.15;;;4.03;;
73150;SDS011;61354;50.758;6.106;2023-02-03T16:22:40;8.55;;;4.50;;
73150;SDS011;61354;50.758;6.106;2023-02-03T16:27:44;8.48;;;4.13;;
73150;SDS011;61354;50.758;6.106;2023-02-03T16:33:09;6.53;;;3.70;;
73150;SDS011;61354;50.758;6.106;2023-02-03T16:35:59;6.35;;;3.60;;
73150;SDS011;61354;50.758;6.106;2023-02-03T16:38:54;6.88;;;3.42;;
73150;SDS011;61354;50.758;6.106;2023-02-03T16:41:40;7.00;;;3.70;;
73150;SDS011;61354;50.758;6.106;2023-02-03T16:44:24;5.20;;;2.72;;
73150;SDS011;61354;50.758;6.106;2023-02-03T16:47:24;5.28;;;3.65;;
73150;SDS011;61354;50.758;6.106;2023-02-03T16:50:12;6.72;;;4.15;;
73150;SDS011;61354;50.758;6.106;2023-02-03T16:53:00;7.18;;;3.40;;
73150;SDS011;61354;50.758;6.106;2023-02-03T16:55:26;7.57;;;3.47;;
73150;SDS011;61354;50.758;6.106;2023-02-03T16:57:52;7.25;;;3.55;;
73150;SDS011;61354;50.758;6.106;2023-02-03T17:00:18;6.38;;;3.25;;
73150;SDS011;61354;50.758;6.106;2023-02-03T17:02:47;5.95;;;3.40;;
73150;SDS011;61354;50.758;6.106;2023-02-03T17:05:14;7.40;;;3.58;;
73150;SDS011;61354;50.758;6.106;2023-02-03T17:07:40;6.82;;;3.28;;
73150;SDS011;61354;50.758;6.106;2023-02-03T17:10:06;5.57;;;3.55;;
73150;SDS011;61354;50.758;6.106;2023-02-03T17:12:32;7.43;;;4.63;;
73150;SDS011;61354;50.758;6.106;2023-02-03T17:14:58;8.38;;;3.75;;
73150;SDS011;61354;50.758;6.106;2023-02-03T17:17:24;6.78;;;3.70;;
73150;SDS011;61354;50.758;6.106;2023-02-03T17:19:50;7.82;;;3.90;;
73150;SDS011;61354;50.758;6.106;2023-02-03T17:22:15;8.07;;;4.40;;
73150;SDS011;61354;50.758;6.106;2023-02-03T17:24:41;9.35;;;4.15;;
73150;SDS011;61354;50.758;6.106;2023-02-03T17:27:07;10.00;;;4.43;;
73150;SDS011;61354;50.758;6.106;2023-02-03T17:29:32;9.43;;;4.05;;
73150;SDS011;61354;50.758;6.106;2023-02-03T17:31:58;7.88;;;4.43;;
73150;SDS011;61354;50.758;6.106;2023-02-03T17:34:23;7.68;;;4.63;;
73150;SDS011;61354;50.758;6.106;2023-02-03T17:36:49;8.25;;;4.07;;
73150;SDS011;61354;50.758;6.106;2023-02-03T17:39:14;7.68;;;3.83;;
73150;SDS011;61354;50.758;6.106;2023-02-03T17:41:40;7.72;;;3.92;;
73150;SDS011;61354;50.758;6.106;2023-02-03T17:44:06;7.85;;;4.20;;
73150;SDS011;61354;50.758;6.106;2023-02-03T17:46:32;9.60;;;4.72;;
73150;SDS011;61354;50.758;6.106;2023-02-03T17:48:57;7.72;;;4.00;;
73150;SDS011;61354;50.758;6.106;2023-02-03T17:51:23;8.77;;;5.00;;
73150;SDS011;61354;50.758;6.106;2023-02-03T17:53:50;9.25;;;5.13;;
73150;SDS011;61354;50.758;6.106;2023-02-03T17:56:17;9.05;;;4.93;;
73150;SDS011;61354;50.758;6.106;2023-02-03T17:58:56;9.68;;;4.97;;
73150;SDS011;61354;50.758;6.106;2023-02-03T18:01:24;7.82;;;4.30;;
73150;SDS011;61354;50.758;6.106;2023-02-03T18:03:57;5.95;;;3.60;;
73150;SDS011;61354;50.758;6.106;2023-02-03T18:06:24;6.15;;;2.80;;
73150;SDS011;61354;50.758;6.106;2023-02-03T18:08:51;10.48;;;5.47;;
73150;SDS011;61354;50.758;6.106;2023-02-03T18:11:18;10.25;;;5.22;;
73150;SDS011;61354;50.758;6.106;2023-02-03T18:13:45;8.05;;;4.90;;
73150;SDS011;61354;50.758;6.106;2023-02-03T18:16:16;7.30;;;4.80;;